sensor_id;sensor_type;location;lat;lon;timestamp;pressure;altitude;pressure_sealevel;temperature;humidity
6032;BME280;3044;43.232;27.972;2023-07-31T00:02:04;45102.38;;;-143.84;95.92
6032;BME280;3044;43.232;27.972;2023-07-31T00:04:33;45087.16;;;-143.84;95.87
6032;BME280;3044;43.232;27.972;2023-07-31T00:07:00;45085.25;;;-143.84;95.93
6032;BME280;3044;43.232;27.972;2023-07-31T00:09:29;45102.38;;;-143.84;95.76
6032;BME280;3044;43.232;27.972;2023-07-31T00:11:56;45096.66;;;-143.84;96.18
6032;BME280;3044;43.232;27.972;2023-07-31T00:14:23;45098.56;;;-143.84;95.84
6032;BME280;3044;43.232;27.972;2023-07-31T00:16:51;45108.09;;;-143.84;95.99
6032;BME280;3044;43.232;27.972;2023-07-31T00:19:18;45098.56;;;-143.84;96.21
6032;BME280;3044;43.232;27.972;2023-07-31T00:21:46;45106.19;;;-143.84;96.17
6032;BME280;3044;43.232;27.972;2023-07-31T00:24:13;45110.00;;;-143.84;96.27
6032;BME280;3044;43.232;27.972;2023-07-31T00:26:40;45100.47;;;-143.84;96.42
6032;BME280;3044;43.232;27.972;2023-07-31T00:29:07;45123.34;;;-143.84;96.40
6032;BME280;3044;43.232;27.972;2023-07-31T00:31:34;45110.00;;;-143.84;96.43
6032;BME280;3044;43.232;27.972;2023-07-31T00:34:01;45100.47;;;-143.84;96.30
6032;BME280;3044;43.232;27.972;2023-07-31T00:36:29;45102.38;;;-143.84;96.24
6032;BME280;3044;43.232;27.972;2023-07-31T00:38:57;45125.22;;;-143.84;96.39
6032;BME280;3044;43.232;27.972;2023-07-31T00:41:24;45115.72;;;-143.84;96.21
6032;BME280;3044;43.232;27.972;2023-07-31T00:43:51;45098.56;;;-143.84;96.39
6032;BME280;3044;43.232;27.972;2023-07-31T00:46:19;45089.06;;;-143.84;96.22
6032;BME280;3044;43.232;27.972;2023-07-31T00:48:47;45106.19;;;-143.84;96.13
6032;BME280;3044;43.232;27.972;2023-07-31T00:51:14;45090.97;;;-143.84;96.21
6032;BME280;3044;43.232;27.972;2023-07-31T00:53:41;45106.19;;;-143.84;96.06
6032;BME280;3044;43.232;27.972;2023-07-31T00:56:11;45096.66;;;-143.84;95.84
6032;BME280;3044;43.232;27.972;2023-07-31T00:58:39;45098.56;;;-143.84;95.78
6032;BME280;3044;43.232;27.972;2023-07-31T01:01:06;45092.88;;;-143.84;95.82
6032;BME280;3044;43.232;27.972;2023-07-31T01:03:33;45115.72;;;-143.84;95.87
6032;BME280;3044;43.232;27.972;2023-07-31T01:06:09;45132.84;;;-143.84;95.81
6032;BME280;3044;43.232;27.972;2023-07-31T01:08:44;45081.44;;;-143.84;95.62
6032;BME280;3044;43.232;27.972;2023-07-31T01:11:24;45060.50;;;-143.84;95.82
6032;BME280;3044;43.232;27.972;2023-07-31T01:13:53;45096.66;;;-143.84;95.72
6032;BME280;3044;43.232;27.972;2023-07-31T01:16:20;45115.72;;;-143.84;95.87
6032;BME280;3044;43.232;27.972;2023-07-31T01:18:48;45094.78;;;-143.84;96.41
6032;BME280;3044;43.232;27.972;2023-07-31T01:21:35;45108.09;;;-143.84;96.29
6032;BME280;3044;43.232;27.972;2023-07-31T01:24:19;45090.97;;;-143.84;96.03
6032;BME280;3044;43.232;27.972;2023-07-31T01:26:53;45106.19;;;-143.84;96.07
6032;BME280;3044;43.232;27.972;2023-07-31T01:29:29;45110.00;;;-143.84;96.09
6032;BME280;3044;43.232;27.972;2023-07-31T01:32:01;45104.28;;;-143.84;96.27
6032;BME280;3044;43.232;27.972;2023-07-31T01:34:29;45098.56;;;-143.84;96.35
6032;BME280;3044;43.232;27.972;2023-07-31T01:36:58;45062.41;;;-143.84;96.05
6032;BME280;3044;43.232;27.972;2023-07-31T01:39:25;45113.81;;;-143.84;96.13
6032;BME280;3044;43.232;27.972;2023-07-31T01:41:53;45090.97;;;-143.84;96.33
6032;BME280;3044;43.232;27.972;2023-07-31T01:44:20;45106.19;;;-143.84;96.56
6032;BME280;3044;43.232;27.972;2023-07-31T01:46:47;45102.38;;;-143.84;96.56
6032;BME280;3044;43.232;27.972;2023-07-31T01:49:15;45108.09;;;-143.84;96.67
6032;BME280;3044;43.232;27.972;2023-07-31T01:51:42;45083.34;;;-143.84;96.83
6032;BME280;3044;43.232;27.972;2023-07-31T01:54:09;45127.13;;;-143.84;96.78
6032;BME280;3044;43.232;27.972;2023-07-31T01:56:36;45085.25;;;-143.84;96.52
6032;BME280;3044;43.232;27.972;2023-07-31T01:59:05;45113.81;;;-143.84;96.67
6032;BME280;3044;43.232;27.972;2023-07-31T02:01:32;45079.53;;;-143.84;96.51
6032;BME280;3044;43.232;27.972;2023-07-31T02:03:59;45104.28;;;-143.84;96.72
6032;BME280;3044;43.232;27.972;2023-07-31T02:06:27;45110.00;;;-143.84;96.70
6032;BME280;3044;43.232;27.972;2023-07-31T02:08:54;45134.75;;;-143.84;97.15
6032;BME280;3044;43.232;27.972;2023-07-31T02:11:21;45111.91;;;-143.84;96.70
6032;BME280;3044;43.232;27.972;2023-07-31T02:13:48;45094.78;;;-143.84;97.05
6032;BME280;3044;43.232;27.972;2023-07-31T02:16:17;45117.63;;;-143.84;96.59
6032;BME280;3044;43.232;27.972;2023-07-31T02:18:44;45089.06;;;-143.84;96.78
6032;BME280;3044;43.232;27.972;2023-07-31T02:21:11;45132.84;;;-143.84;97.07
6032;BME280;3044;43.232;27.972;2023-07-31T02:23:38;45092.88;;;-143.84;97.35
6032;BME280;3044;43.232;27.972;2023-07-31T02:26:05;45127.13;;;-143.84;97.29
6032;BME280;3044;43.232;27.972;2023-07-31T02:28:31;45106.19;;;-143.84;96.93
6032;BME280;3044;43.232;27.972;2023-07-31T02:30:58;45094.78;;;-143.84;96.92
6032;BME280;3044;43.232;27.972;2023-07-31T02:33:27;45125.22;;;-143.84;96.55
6032;BME280;3044;43.232;27.972;2023-07-31T02:35:54;45129.03;;;-143.84;96.40
6032;BME280;3044;43.232;27.972;2023-07-31T02:38:21;45098.56;;;-143.84;96.38
6032;BME280;3044;43.232;27.972;2023-07-31T02:40:48;45138.56;;;-143.84;96.30
6032;BME280;3044;43.232;27.972;2023-07-31T02:43:15;45108.09;;;-143.84;96.34
6032;BME280;3044;43.232;27.972;2023-07-31T02:45:42;45125.22;;;-143.84;95.81
6032;BME280;3044;43.232;27.972;2023-07-31T02:48:09;45132.84;;;-143.84;95.76
6032;BME280;3044;43.232;27.972;2023-07-31T02:50:38;45132.84;;;-143.84;95.47
6032;BME280;3044;43.232;27.972;2023-07-31T02:53:05;45117.63;;;-143.84;95.20
6032;BME280;3044;43.232;27.972;2023-07-31T02:55:32;45108.09;;;-143.84;94.35
6032;BME280;3044;43.232;27.972;2023-07-31T02:57:59;45106.19;;;-143.84;94.19
6032;BME280;3044;43.232;27.972;2023-07-31T03:00:26;45113.81;;;-143.84;93.87
6032;BME280;3044;43.232;27.972;2023-07-31T03:02:53;45098.56;;;-143.84;93.39
6032;BME280;3044;43.232;27.972;2023-07-31T03:05:20;45108.09;;;-143.84;92.71
6032;BME280;3044;43.232;27.972;2023-07-31T03:07:49;45113.81;;;-143.84;92.47
6032;BME280;3044;43.232;27.972;2023-07-31T03:10:16;45110.00;;;-143.84;90.55
6032;BME280;3044;43.232;27.972;2023-07-31T03:12:46;45117.63;;;-143.84;89.61
6032;BME280;3044;43.232;27.972;2023-07-31T03:15:13;45071.91;;;-143.84;88.36
6032;BME280;3044;43.232;27.972;2023-07-31T03:17:41;45098.56;;;-143.84;88.46
6032;BME280;3044;43.232;27.972;2023-07-31T03:20:09;45123.34;;;-143.84;89.21
6032;BME280;3044;43.232;27.972;2023-07-31T03:22:36;45117.63;;;-143.84;90.16
6032;BME280;3044;43.232;27.972;2023-07-31T03:25:05;45108.09;;;-143.84;90.46
6032;BME280;3044;43.232;27.972;2023-07-31T03:27:33;45106.19;;;-143.84;90.63
6032;BME280;3044;43.232;27.972;2023-07-31T03:30:00;45111.91;;;-143.84;90.78
6032;BME280;3044;43.232;27.972;2023-07-31T03:32:27;45117.63;;;-143.84;90.92
6032;BME280;3044;43.232;27.972;2023-07-31T03:34:54;45108.09;;;-143.84;91.09
6032;BME280;3044;43.232;27.972;2023-07-31T03:37:21;45098.56;;;-143.84;90.83
6032;BME280;3044;43.232;27.972;2023-07-31T03:39:49;45106.19;;;-143.84;90.83
6032;BME280;3044;43.232;27.972;2023-07-31T03:42:17;45108.09;;;-143.84;90.35
6032;BME280;3044;43.232;27.972;2023-07-31T03:44:44;45098.56;;;-143.84;90.13
6032;BME280;3044;43.232;27.972;2023-07-31T03:47:11;45083.34;;;-143.84;87.77
6032;BME280;3044;43.232;27.972;2023-07-31T03:49:39;45090.97;;;-143.84;85.66
6032;BME280;3044;43.232;27.972;2023-07-31T03:52:06;45068.13;;;-143.84;83.83
6032;BME280;3044;43.232;27.972;2023-07-31T03:54:34;45100.47;;;-143.84;82.10
6032;BME280;3044;43.232;27.972;2023-07-31T03:57:01;45092.88;;;-143.84;82.85
6032;BME280;3044;43.232;27.972;2023-07-31T03:59:29;45096.66;;;-143.84;82.81
6032;BME280;3044;43.232;27.972;2023-07-31T04:01:56;45087.16;;;-143.84;82.90
6032;BME280;3044;43.232;27.972;2023-07-31T04:04:23;45081.44;;;-143.84;82.78
6032;BME280;3044;43.232;27.972;2023-07-31T04:06:51;45071.91;;;-143.84;81.97
6032;BME280;3044;43.232;27.972;2023-07-31T04:09:19;45106.19;;;-143.84;80.13
6032;BME280;3044;43.232;27.972;2023-07-31T04:11:46;45056.69;;;-143.84;78.97
6032;BME280;3044;43.232;27.972;2023-07-31T04:14:13;45090.97;;;-143.84;77.24
6032;BME280;3044;43.232;27.972;2023-07-31T04:16:42;45083.34;;;-143.84;75.67
6032;BME280;3044;43.232;27.972;2023-07-31T04:19:09;45058.59;;;-143.84;73.67
6032;BME280;3044;43.232;27.972;2023-07-31T04:21:37;45083.34;;;-143.84;71.32
6032;BME280;3044;43.232;27.972;2023-07-31T04:24:04;45041.44;;;-143.84;68.34
6032;BME280;3044;43.232;27.972;2023-07-31T04:26:32;45062.41;;;-143.84;65.16
6032;BME280;3044;43.232;27.972;2023-07-31T04:28:59;45071.91;;;-143.84;61.86
6032;BME280;3044;43.232;27.972;2023-07-31T04:31:26;45049.06;;;-143.84;61.39
6032;BME280;3044;43.232;27.972;2023-07-31T04:33:54;45045.25;;;-143.84;62.21
6032;BME280;3044;43.232;27.972;2023-07-31T04:36:22;45056.69;;;-143.84;62.26
6032;BME280;3044;43.232;27.972;2023-07-31T04:38:50;45041.44;;;-143.84;62.62
6032;BME280;3044;43.232;27.972;2023-07-31T04:41:19;45068.13;;;-143.84;58.59
6032;BME280;3044;43.232;27.972;2023-07-31T04:43:47;45014.78;;;-143.84;55.59
6032;BME280;3044;43.232;27.972;2023-07-31T04:46:18;45024.31;;;-143.84;55.63
6032;BME280;3044;43.232;27.972;2023-07-31T04:48:47;45043.34;;;-143.84;55.12
6032;BME280;3044;43.232;27.972;2023-07-31T04:51:22;45031.94;;;-143.84;55.93
6032;BME280;3044;43.232;27.972;2023-07-31T04:53:50;45012.88;;;-143.84;56.45
6032;BME280;3044;43.232;27.972;2023-07-31T04:56:19;45028.13;;;-143.84;57.65
6032;BME280;3044;43.232;27.972;2023-07-31T04:58:51;45033.84;;;-143.84;59.68
6032;BME280;3044;43.232;27.972;2023-07-31T05:01:25;45028.13;;;-143.84;60.33
6032;BME280;3044;43.232;27.972;2023-07-31T05:03:55;45049.06;;;-143.84;60.55
6032;BME280;3044;43.232;27.972;2023-07-31T05:06:25;45033.84;;;-143.84;60.56
6032;BME280;3044;43.232;27.972;2023-07-31T05:08:52;45031.94;;;-143.84;58.99
6032;BME280;3044;43.232;27.972;2023-07-31T05:11:20;45033.84;;;-143.84;55.69
6032;BME280;3044;43.232;27.972;2023-07-31T05:13:48;45010.97;;;-143.84;52.13
6032;BME280;3044;43.232;27.972;2023-07-31T05:16:15;45039.53;;;-143.84;49.65
6032;BME280;3044;43.232;27.972;2023-07-31T05:18:44;45022.41;;;-143.84;47.48
6032;BME280;3044;43.232;27.972;2023-07-31T05:21:11;44988.13;;;-143.84;47.73
6032;BME280;3044;43.232;27.972;2023-07-31T05:23:41;44986.22;;;-143.84;47.77
6032;BME280;3044;43.232;27.972;2023-07-31T05:26:09;45005.28;;;-143.84;46.17
6032;BME280;3044;43.232;27.972;2023-07-31T05:28:39;44946.25;;;-143.84;45.15
6032;BME280;3044;43.232;27.972;2023-07-31T05:31:09;44963.38;;;-143.84;44.92
6032;BME280;3044;43.232;27.972;2023-07-31T05:33:40;44969.09;;;-143.84;43.45
6032;BME280;3044;43.232;27.972;2023-07-31T05:36:08;44961.47;;;-143.84;42.74
6032;BME280;3044;43.232;27.972;2023-07-31T05:38:36;44961.47;;;-143.84;41.84
6032;BME280;3044;43.232;27.972;2023-07-31T05:41:05;44934.81;;;-143.84;42.22
6032;BME280;3044;43.232;27.972;2023-07-31T05:43:33;44990.03;;;-143.84;42.05
6032;BME280;3044;43.232;27.972;2023-07-31T05:46:00;44991.94;;;-143.84;42.33
6032;BME280;3044;43.232;27.972;2023-07-31T05:48:27;44950.06;;;-143.84;42.54
6032;BME280;3044;43.232;27.972;2023-07-31T05:50:54;44961.47;;;-143.84;41.75
6032;BME280;3044;43.232;27.972;2023-07-31T05:53:21;44963.38;;;-143.84;41.66
6032;BME280;3044;43.232;27.972;2023-07-31T05:55:48;44938.63;;;-143.84;42.08
6032;BME280;3044;43.232;27.972;2023-07-31T05:58:17;44988.13;;;-143.84;42.25
6032;BME280;3044;43.232;27.972;2023-07-31T06:00:44;44963.38;;;-143.84;42.06
6032;BME280;3044;43.232;27.972;2023-07-31T06:03:11;44959.56;;;-143.84;42.19
6032;BME280;3044;43.232;27.972;2023-07-31T06:05:38;44969.09;;;-143.84;41.89
6032;BME280;3044;43.232;27.972;2023-07-31T06:08:05;44929.09;;;-143.84;41.91
6032;BME280;3044;43.232;27.972;2023-07-31T06:10:32;44953.88;;;-143.84;41.40
6032;BME280;3044;43.232;27.972;2023-07-31T06:13:00;44946.25;;;-143.84;42.11
6032;BME280;3044;43.232;27.972;2023-07-31T06:15:28;44980.53;;;-143.84;41.77
6032;BME280;3044;43.232;27.972;2023-07-31T06:17:56;44944.34;;;-143.84;42.38
6032;BME280;3044;43.232;27.972;2023-07-31T06:20:23;44946.25;;;-143.84;41.97
6032;BME280;3044;43.232;27.972;2023-07-31T06:22:50;44961.47;;;-143.84;41.83
6032;BME280;3044;43.232;27.972;2023-07-31T06:25:17;44940.53;;;-143.84;41.91
6032;BME280;3044;43.232;27.972;2023-07-31T06:27:44;44940.53;;;-143.84;42.28
6032;BME280;3044;43.232;27.972;2023-07-31T06:30:12;44931.00;;;-143.84;41.69
6032;BME280;3044;43.232;27.972;2023-07-31T06:32:40;44927.19;;;-143.84;42.28
6032;BME280;3044;43.232;27.972;2023-07-31T06:35:08;44955.75;;;-143.84;41.68
6032;BME280;3044;43.232;27.972;2023-07-31T06:37:35;44957.66;;;-143.84;42.65
6032;BME280;3044;43.232;27.972;2023-07-31T06:40:03;44932.91;;;-143.84;42.22
6032;BME280;3044;43.232;27.972;2023-07-31T06:42:33;44959.56;;;-143.84;42.85
6032;BME280;3044;43.232;27.972;2023-07-31T06:45:00;44984.31;;;-143.84;42.54
6032;BME280;3044;43.232;27.972;2023-07-31T06:47:27;44953.88;;;-143.84;43.33
6032;BME280;3044;43.232;27.972;2023-07-31T06:49:56;44948.16;;;-143.84;43.13
6032;BME280;3044;43.232;27.972;2023-07-31T06:52:23;44942.44;;;-143.84;43.04
6032;BME280;3044;43.232;27.972;2023-07-31T06:55:01;44955.75;;;-143.84;43.62
6032;BME280;3044;43.232;27.972;2023-07-31T06:57:29;44961.47;;;-143.84;43.58
6032;BME280;3044;43.232;27.972;2023-07-31T06:59:57;44955.75;;;-143.84;42.50
6032;BME280;3044;43.232;27.972;2023-07-31T07:02:24;44951.97;;;-143.84;42.40
6032;BME280;3044;43.232;27.972;2023-07-31T07:04:51;44976.72;;;-143.84;42.34
6032;BME280;3044;43.232;27.972;2023-07-31T07:07:19;44969.09;;;-143.84;43.01
6032;BME280;3044;43.232;27.972;2023-07-31T07:09:47;44934.81;;;-143.84;43.83
6032;BME280;3044;43.232;27.972;2023-07-31T07:12:14;44961.47;;;-143.84;43.25
6032;BME280;3044;43.232;27.972;2023-07-31T07:14:41;44944.34;;;-143.84;42.19
6032;BME280;3044;43.232;27.972;2023-07-31T07:17:08;44957.66;;;-143.84;42.48
6032;BME280;3044;43.232;27.972;2023-07-31T07:19:35;44921.50;;;-143.84;42.56
6032;BME280;3044;43.232;27.972;2023-07-31T07:22:01;44942.44;;;-143.84;42.21
6032;BME280;3044;43.232;27.972;2023-07-31T07:24:30;44959.56;;;-143.84;42.55
6032;BME280;3044;43.232;27.972;2023-07-31T07:26:57;44915.78;;;-143.84;42.22
6032;BME280;3044;43.232;27.972;2023-07-31T07:29:24;44931.00;;;-143.84;41.46
6032;BME280;3044;43.232;27.972;2023-07-31T07:31:51;44925.31;;;-143.84;42.18
6032;BME280;3044;43.232;27.972;2023-07-31T07:34:18;44936.72;;;-143.84;41.96
6032;BME280;3044;43.232;27.972;2023-07-31T07:36:45;44932.91;;;-143.84;41.35
6032;BME280;3044;43.232;27.972;2023-07-31T07:39:12;44919.59;;;-143.84;40.74
6032;BME280;3044;43.232;27.972;2023-07-31T07:41:40;44936.72;;;-143.84;40.53
6032;BME280;3044;43.232;27.972;2023-07-31T07:44:08;44917.69;;;-143.84;41.01
6032;BME280;3044;43.232;27.972;2023-07-31T07:46:35;44908.16;;;-143.84;41.26
6032;BME280;3044;43.232;27.972;2023-07-31T07:49:02;44898.66;;;-143.84;40.03
6032;BME280;3044;43.232;27.972;2023-07-31T07:51:29;44915.78;;;-143.84;39.93
6032;BME280;3044;43.232;27.972;2023-07-31T07:53:57;44898.66;;;-143.84;40.63
6032;BME280;3044;43.232;27.972;2023-07-31T07:56:25;44913.88;;;-143.84;40.91
6032;BME280;3044;43.232;27.972;2023-07-31T07:58:54;44904.34;;;-143.84;41.58
6032;BME280;3044;43.232;27.972;2023-07-31T08:01:22;44875.78;;;-143.84;40.80
6032;BME280;3044;43.232;27.972;2023-07-31T08:03:49;44881.50;;;-143.84;40.09
6032;BME280;3044;43.232;27.972;2023-07-31T08:06:17;44900.53;;;-143.84;40.06
6032;BME280;3044;43.232;27.972;2023-07-31T08:08:44;44923.41;;;-143.84;40.20
6032;BME280;3044;43.232;27.972;2023-07-31T08:11:11;44911.97;;;-143.84;41.47
6032;BME280;3044;43.232;27.972;2023-07-31T08:13:38;44913.88;;;-143.84;40.60
6032;BME280;3044;43.232;27.972;2023-07-31T08:16:06;44931.00;;;-143.84;41.88
6032;BME280;3044;43.232;27.972;2023-07-31T08:18:34;44929.09;;;-143.84;43.70
6032;BME280;3044;43.232;27.972;2023-07-31T08:21:01;44955.75;;;-143.84;42.43
6032;BME280;3044;43.232;27.972;2023-07-31T08:23:29;44957.66;;;-143.84;42.33
6032;BME280;3044;43.232;27.972;2023-07-31T08:25:56;44959.56;;;-143.84;43.81
6032;BME280;3044;43.232;27.972;2023-07-31T08:28:23;44944.34;;;-143.84;44.75
6032;BME280;3044;43.232;27.972;2023-07-31T08:30:50;44936.72;;;-143.84;45.36
6032;BME280;3044;43.232;27.972;2023-07-31T08:33:19;44940.53;;;-143.84;43.35
6032;BME280;3044;43.232;27.972;2023-07-31T08:35:46;44986.22;;;-143.84;43.70
6032;BME280;3044;43.232;27.972;2023-07-31T08:38:14;44957.66;;;-143.84;44.37
6032;BME280;3044;43.232;27.972;2023-07-31T08:40:41;44988.13;;;-143.84;44.55
6032;BME280;3044;43.232;27.972;2023-07-31T08:43:09;44976.72;;;-143.84;44.22
6032;BME280;3044;43.232;27.972;2023-07-31T08:45:36;44999.56;;;-143.84;44.91
6032;BME280;3044;43.232;27.972;2023-07-31T08:48:04;44978.63;;;-143.84;45.58
6032;BME280;3044;43.232;27.972;2023-07-31T08:50:33;44965.28;;;-143.84;46.48
6032;BME280;3044;43.232;27.972;2023-07-31T08:53:00;44988.13;;;-143.84;45.43
6032;BME280;3044;43.232;27.972;2023-07-31T08:55:28;45001.47;;;-143.84;45.15
6032;BME280;3044;43.232;27.972;2023-07-31T08:57:56;44999.56;;;-143.84;45.92
6032;BME280;3044;43.232;27.972;2023-07-31T09:00:24;45014.78;;;-143.84;46.32
6032;BME280;3044;43.232;27.972;2023-07-31T09:02:56;44991.94;;;-143.84;46.94
6032;BME280;3044;43.232;27.972;2023-07-31T09:05:26;44993.84;;;-143.84;49.22
6032;BME280;3044;43.232;27.972;2023-07-31T09:07:55;45005.28;;;-143.84;47.45
6032;BME280;3044;43.232;27.972;2023-07-31T09:10:23;45009.09;;;-143.84;48.25
6032;BME280;3044;43.232;27.972;2023-07-31T09:12:51;45009.09;;;-143.84;49.60
6032;BME280;3044;43.232;27.972;2023-07-31T09:15:19;45003.38;;;-143.84;49.69
6032;BME280;3044;43.232;27.972;2023-07-31T09:17:46;44999.56;;;-143.84;50.84
6032;BME280;3044;43.232;27.972;2023-07-31T09:20:15;45028.13;;;-143.84;52.47
6032;BME280;3044;43.232;27.972;2023-07-31T09:22:43;45022.41;;;-143.84;50.90
6032;BME280;3044;43.232;27.972;2023-07-31T09:25:18;45005.28;;;-143.84;50.64
6032;BME280;3044;43.232;27.972;2023-07-31T09:27:47;44997.66;;;-143.84;50.60
6032;BME280;3044;43.232;27.972;2023-07-31T09:30:14;44995.75;;;-143.84;51.98
6032;BME280;3044;43.232;27.972;2023-07-31T09:32:42;44993.84;;;-143.84;51.23
6032;BME280;3044;43.232;27.972;2023-07-31T09:35:18;44995.75;;;-143.84;51.52
6032;BME280;3044;43.232;27.972;2023-07-31T09:37:49;45030.03;;;-143.84;53.17
6032;BME280;3044;43.232;27.972;2023-07-31T09:40:28;45016.69;;;-143.84;53.24
6032;BME280;3044;43.232;27.972;2023-07-31T09:43:00;45005.28;;;-143.84;54.54
6032;BME280;3044;43.232;27.972;2023-07-31T09:45:27;44999.56;;;-143.84;53.26
6032;BME280;3044;43.232;27.972;2023-07-31T09:47:55;44993.84;;;-143.84;52.43
6032;BME280;3044;43.232;27.972;2023-07-31T09:50:24;44988.13;;;-143.84;51.98
6032;BME280;3044;43.232;27.972;2023-07-31T09:52:52;44991.94;;;-143.84;55.69
6032;BME280;3044;43.232;27.972;2023-07-31T09:55:19;45001.47;;;-143.84;50.87
6032;BME280;3044;43.232;27.972;2023-07-31T09:57:49;45005.28;;;-143.84;51.96
6032;BME280;3044;43.232;27.972;2023-07-31T10:00:17;44990.03;;;-143.84;49.28
6032;BME280;3044;43.232;27.972;2023-07-31T10:02:46;44997.66;;;-143.84;50.30
6032;BME280;3044;43.232;27.972;2023-07-31T10:05:14;44995.75;;;-143.84;49.31
6032;BME280;3044;43.232;27.972;2023-07-31T10:07:45;44965.28;;;-143.84;47.81
6032;BME280;3044;43.232;27.972;2023-07-31T10:10:14;44957.66;;;-143.84;46.54
6032;BME280;3044;43.232;27.972;2023-07-31T10:12:43;44971.00;;;-143.84;46.06
6032;BME280;3044;43.232;27.972;2023-07-31T10:15:15;44972.91;;;-143.84;45.87
6032;BME280;3044;43.232;27.972;2023-07-31T10:17:42;44955.75;;;-143.84;45.09
6032;BME280;3044;43.232;27.972;2023-07-31T10:20:10;44967.19;;;-143.84;45.55
6032;BME280;3044;43.232;27.972;2023-07-31T10:22:38;44929.09;;;-143.84;46.25
6032;BME280;3044;43.232;27.972;2023-07-31T10:25:08;44942.44;;;-143.84;44.88
6032;BME280;3044;43.232;27.972;2023-07-31T10:27:35;44971.00;;;-143.84;46.68
6032;BME280;3044;43.232;27.972;2023-07-31T10:30:04;44938.63;;;-143.84;46.04
6032;BME280;3044;43.232;27.972;2023-07-31T10:32:35;44929.09;;;-143.84;45.83
6032;BME280;3044;43.232;27.972;2023-07-31T10:35:03;44927.19;;;-143.84;45.33
6032;BME280;3044;43.232;27.972;2023-07-31T10:37:37;44932.91;;;-143.84;46.01
6032;BME280;3044;43.232;27.972;2023-07-31T10:40:05;44963.38;;;-143.84;45.87
6032;BME280;3044;43.232;27.972;2023-07-31T10:42:35;44931.00;;;-143.84;45.80
6032;BME280;3044;43.232;27.972;2023-07-31T10:45:04;44955.75;;;-143.84;46.74
6032;BME280;3044;43.232;27.972;2023-07-31T10:47:38;44951.97;;;-143.84;46.41
6032;BME280;3044;43.232;27.972;2023-07-31T10:50:17;44972.91;;;-143.84;47.16
6032;BME280;3044;43.232;27.972;2023-07-31T10:52:50;44957.66;;;-143.84;46.49
6032;BME280;3044;43.232;27.972;2023-07-31T10:55:29;44955.75;;;-143.84;44.58
6032;BME280;3044;43.232;27.972;2023-07-31T10:57:57;44980.53;;;-143.84;44.74
6032;BME280;3044;43.232;27.972;2023-07-31T11:00:26;44963.38;;;-143.84;44.69
6032;BME280;3044;43.232;27.972;2023-07-31T11:02:59;44972.91;;;-143.84;44.53
6032;BME280;3044;43.232;27.972;2023-07-31T11:05:44;44955.75;;;-143.84;43.85
6032;BME280;3044;43.232;27.972;2023-07-31T11:08:16;44969.09;;;-143.84;43.92
6032;BME280;3044;43.232;27.972;2023-07-31T11:10:44;44944.34;;;-143.84;43.90
6032;BME280;3044;43.232;27.972;2023-07-31T11:13:11;44948.16;;;-143.84;43.69
6032;BME280;3044;43.232;27.972;2023-07-31T11:15:38;44948.16;;;-143.84;43.63
6032;BME280;3044;43.232;27.972;2023-07-31T11:18:07;44965.28;;;-143.84;43.99
6032;BME280;3044;43.232;27.972;2023-07-31T11:20:37;44955.75;;;-143.84;43.94
6032;BME280;3044;43.232;27.972;2023-07-31T11:23:07;44959.56;;;-143.84;44.31
6032;BME280;3044;43.232;27.972;2023-07-31T11:25:34;44963.38;;;-143.84;43.76
6032;BME280;3044;43.232;27.972;2023-07-31T11:28:05;44986.22;;;-143.84;44.01
6032;BME280;3044;43.232;27.972;2023-07-31T11:30:33;44951.97;;;-143.84;44.57
6032;BME280;3044;43.232;27.972;2023-07-31T11:33:05;44972.91;;;-143.84;44.88
6032;BME280;3044;43.232;27.972;2023-07-31T11:35:35;44972.91;;;-143.84;44.58
6032;BME280;3044;43.232;27.972;2023-07-31T11:38:03;44965.28;;;-143.84;44.92
6032;BME280;3044;43.232;27.972;2023-07-31T11:40:30;44959.56;;;-143.84;44.85
6032;BME280;3044;43.232;27.972;2023-07-31T11:42:57;44957.66;;;-143.84;44.99
6032;BME280;3044;43.232;27.972;2023-07-31T11:45:26;44936.72;;;-143.84;44.90
6032;BME280;3044;43.232;27.972;2023-07-31T11:47:54;44946.25;;;-143.84;44.60
6032;BME280;3044;43.232;27.972;2023-07-31T11:50:22;44953.88;;;-143.84;43.90
6032;BME280;3044;43.232;27.972;2023-07-31T11:52:56;44946.25;;;-143.84;44.01
6032;BME280;3044;43.232;27.972;2023-07-31T11:55:24;44978.63;;;-143.84;44.63
6032;BME280;3044;43.232;27.972;2023-07-31T11:57:53;44959.56;;;-143.84;43.93
6032;BME280;3044;43.232;27.972;2023-07-31T12:00:20;44990.03;;;-143.84;44.21
6032;BME280;3044;43.232;27.972;2023-07-31T12:02:48;44953.88;;;-143.84;44.22
6032;BME280;3044;43.232;27.972;2023-07-31T12:05:17;44950.06;;;-143.84;43.84
6032;BME280;3044;43.232;27.972;2023-07-31T12:07:49;44925.31;;;-143.84;43.98
6032;BME280;3044;43.232;27.972;2023-07-31T12:10:25;44923.41;;;-143.84;44.19
6032;BME280;3044;43.232;27.972;2023-07-31T12:13:00;44936.72;;;-143.84;44.43
6032;BME280;3044;43.232;27.972;2023-07-31T12:15:33;44953.88;;;-143.84;44.07
6032;BME280;3044;43.232;27.972;2023-07-31T12:18:04;44974.81;;;-143.84;44.36
6032;BME280;3044;43.232;27.972;2023-07-31T12:20:32;44972.91;;;-143.84;44.56
6032;BME280;3044;43.232;27.972;2023-07-31T12:22:59;44988.13;;;-143.84;44.91
6032;BME280;3044;43.232;27.972;2023-07-31T12:25:34;44955.75;;;-143.84;44.75
6032;BME280;3044;43.232;27.972;2023-07-31T12:28:06;44974.81;;;-143.84;44.97
6032;BME280;3044;43.232;27.972;2023-07-31T12:30:38;44967.19;;;-143.84;45.52
6032;BME280;3044;43.232;27.972;2023-07-31T12:33:06;44969.09;;;-143.84;45.90
6032;BME280;3044;43.232;27.972;2023-07-31T12:35:38;44967.19;;;-143.84;46.39
6032;BME280;3044;43.232;27.972;2023-07-31T12:38:07;44993.84;;;-143.84;46.98
6032;BME280;3044;43.232;27.972;2023-07-31T12:40:37;44967.19;;;-143.84;47.46
6032;BME280;3044;43.232;27.972;2023-07-31T12:43:05;44993.84;;;-143.84;47.83
6032;BME280;3044;43.232;27.972;2023-07-31T12:45:32;44972.91;;;-143.84;48.57
6032;BME280;3044;43.232;27.972;2023-07-31T12:48:00;44969.09;;;-143.84;49.18
6032;BME280;3044;43.232;27.972;2023-07-31T12:50:28;44990.03;;;-143.84;50.48
6032;BME280;3044;43.232;27.972;2023-07-31T12:52:55;44980.53;;;-143.84;52.84
6032;BME280;3044;43.232;27.972;2023-07-31T12:55:23;44976.72;;;-143.84;52.29
6032;BME280;3044;43.232;27.972;2023-07-31T12:57:52;44997.66;;;-143.84;53.25